createdAt,value
2023-01-05T00:01:09.147Z,73.12
2023-01-05T00:03:36.144Z,73.58
2023-01-05T00:06:15.511Z,73.96
2023-01-05T00:08:42.342Z,74.38
2023-01-05T00:11:22.878Z,73.85
2023-01-05T00:13:49.538Z,74.26
2023-01-05T00:16:16.203Z,73.72
2023-01-05T00:18:42.881Z,74.87
2023-01-05T00:21:13.752Z,74.48
2023-01-05T00:23:40.403Z,74.29
2023-01-05T00:26:07.141Z,74.49
2023-01-05T00:28:33.825Z,74.83
2023-01-05T00:31:00.528Z,74.69
2023-01-05T00:33:27.181Z,74.45
2023-01-05T00:35:53.834Z,73.84
2023-01-05T00:38:20.473Z,74.92
2023-01-05T00:40:47.109Z,75.00
2023-01-05T00:43:13.840Z,74.61
2023-01-05T00:45:40.530Z,73.96
2023-01-05T00:48:07.247Z,73.63
2023-01-05T00:50:33.903Z,74.49
2023-01-05T00:53:00.563Z,74.31
2023-01-05T00:55:27.205Z,73.46
2023-01-05T00:57:53.862Z,73.77
2023-01-05T01:00:20.595Z,74.40
2023-01-05T01:02:47.722Z,74.86
2023-01-05T01:05:14.467Z,74.71
2023-01-05T01:07:41.116Z,74.74
2023-01-05T01:10:08.245Z,75.34
2023-01-05T01:12:34.881Z,75.10
2023-01-05T01:15:01.557Z,75.31
2023-01-05T01:17:28.201Z,74.97
2023-01-05T01:19:54.852Z,75.31
2023-01-05T01:22:21.491Z,75.88
2023-01-05T01:24:48.111Z,75.79
2023-01-05T01:27:14.791Z,75.53
2023-01-05T01:29:41.450Z,76.31
2023-01-05T01:32:08.158Z,75.38
2023-01-05T01:34:34.815Z,75.05
2023-01-05T01:39:27.063Z,75.68
2023-01-05T01:41:53.683Z,75.04
2023-01-05T01:44:59.637Z,75.37
2023-01-05T01:47:30.522Z,74.86
2023-01-05T01:49:58.584Z,75.86
2023-01-05T01:52:25.251Z,75.26
2023-01-05T01:54:51.894Z,75.65
2023-01-05T01:57:18.548Z,75.54
2023-01-05T01:59:45.195Z,74.84
2023-01-05T02:02:11.932Z,75.35
2023-01-05T02:04:38.695Z,75.20
2023-01-05T02:07:05.401Z,75.34
2023-01-05T02:09:32.036Z,74.70
2023-01-05T02:12:07.081Z,73.14
2023-01-05T02:15:07.545Z,74.43
2023-01-05T02:18:02.016Z,74.56
2023-01-05T02:20:58.945Z,74.96
2023-01-05T02:24:02.713Z,74.50
2023-01-05T02:26:35.205Z,75.23
2023-01-05T02:29:29.478Z,74.75
2023-01-05T02:32:15.781Z,74.74
2023-01-05T02:35:14.001Z,74.98
2023-01-05T02:37:40.499Z,73.84
2023-01-05T02:40:15.368Z,74.52
2023-01-05T02:42:42.155Z,74.82
2023-01-05T02:45:09.108Z,75.07
2023-01-05T02:47:37.536Z,74.12
2023-01-05T02:50:33.087Z,73.77
2023-01-05T02:53:22.568Z,74.58
2023-01-05T02:55:55.453Z,74.65
2023-01-05T02:58:23.752Z,74.12
2023-01-05T03:00:55.860Z,74.26
2023-01-05T03:03:45.332Z,75.21
2023-01-05T03:06:24.934Z,75.44
2023-01-05T03:08:57.345Z,75.89
2023-01-05T03:11:25.359Z,74.24
2023-01-05T03:13:59.444Z,73.68
2023-01-05T03:16:31.023Z,72.80
2023-01-05T03:18:57.743Z,73.88
2023-01-05T03:21:25.255Z,73.97
2023-01-05T03:23:51.890Z,74.05
2023-01-05T03:26:18.556Z,73.89
2023-01-05T03:28:50.769Z,74.70
2023-01-05T03:31:30.129Z,75.24
2023-01-05T03:34:09.209Z,75.54
2023-01-05T03:36:40.658Z,74.79
2023-01-05T03:39:07.281Z,75.95
2023-01-05T03:41:34.025Z,75.07
2023-01-05T03:44:00.664Z,75.24
2023-01-05T03:46:27.397Z,75.45
2023-01-05T03:48:54.064Z,75.74
2023-01-05T03:51:20.707Z,75.65
2023-01-05T03:53:47.351Z,74.27
2023-01-05T03:56:13.981Z,74.48
2023-01-05T03:58:40.626Z,74.96
2023-01-05T04:01:07.395Z,74.82
2023-01-05T04:03:34.184Z,74.99
2023-01-05T04:06:00.876Z,74.38
2023-01-05T04:08:27.539Z,74.76
2023-01-05T04:10:54.259Z,74.70
2023-01-05T04:13:20.896Z,74.34
2023-01-05T04:15:47.601Z,74.85
2023-01-05T04:18:14.291Z,75.34
2023-01-05T04:20:40.915Z,74.60
2023-01-05T04:23:07.532Z,74.05
2023-01-05T04:25:34.218Z,75.00
2023-01-05T04:28:00.858Z,76.05
2023-01-05T04:30:27.503Z,74.87
2023-01-05T04:32:54.184Z,74.83
2023-01-05T04:35:20.833Z,74.20
2023-01-05T04:37:47.481Z,75.17
2023-01-05T04:40:14.200Z,75.62
2023-01-05T04:42:40.868Z,74.87
2023-01-05T04:45:07.889Z,74.95
2023-01-05T04:47:34.523Z,74.91
2023-01-05T04:50:01.206Z,75.58
2023-01-05T04:52:27.840Z,75.33
2023-01-05T04:54:54.673Z,75.67
2023-01-05T04:57:21.295Z,75.60
2023-01-05T04:59:47.919Z,75.85
2023-01-05T05:02:14.698Z,75.43
2023-01-05T05:04:41.478Z,75.94
2023-01-05T05:07:08.126Z,76.24
2023-01-05T05:09:34.782Z,76.23
2023-01-05T05:12:01.419Z,75.90
2023-01-05T05:14:28.049Z,75.49
2023-01-05T05:16:54.665Z,75.75
2023-01-05T05:19:21.325Z,75.56
2023-01-05T05:21:47.963Z,74.56
2023-01-05T05:24:14.609Z,75.59
2023-01-05T05:26:41.259Z,75.76
2023-01-05T05:29:07.918Z,75.21
2023-01-05T05:31:34.645Z,75.39
2023-01-05T05:34:01.326Z,74.98
2023-01-05T05:36:27.969Z,74.53
2023-01-05T05:38:54.634Z,74.18
2023-01-05T05:41:21.274Z,75.62
2023-01-05T05:43:47.929Z,76.07
2023-01-05T05:46:14.616Z,76.04
2023-01-05T05:48:41.283Z,75.65
2023-01-05T05:51:07.930Z,75.18
2023-01-05T05:53:34.597Z,75.39
2023-01-05T05:56:01.237Z,75.58
2023-01-05T05:58:27.879Z,74.93
2023-01-05T06:00:57.718Z,75.92
2023-01-05T06:03:24.418Z,75.64
2023-01-05T06:05:51.385Z,76.12
2023-01-05T06:08:18.027Z,76.95
2023-01-05T06:10:44.655Z,76.26
2023-01-05T06:13:11.512Z,76.52
2023-01-05T06:15:38.151Z,76.66
2023-01-05T06:18:04.787Z,76.47
2023-01-05T06:20:31.447Z,76.27
2023-01-05T06:22:58.073Z,76.72
2023-01-05T06:25:24.711Z,77.06
2023-01-05T06:27:51.358Z,77.42
2023-01-05T06:30:18.021Z,76.21
2023-01-05T06:32:44.654Z,76.03
2023-01-05T06:35:11.283Z,75.42
2023-01-05T06:37:37.902Z,76.16
2023-01-05T06:40:04.851Z,77.36
2023-01-05T06:42:31.475Z,76.72
2023-01-05T06:44:58.129Z,75.52
2023-01-05T06:47:24.747Z,76.71
2023-01-05T06:49:51.378Z,76.71
2023-01-05T06:52:18.027Z,76.60
2023-01-05T06:54:44.702Z,76.02
2023-01-05T06:57:11.330Z,76.30
2023-01-05T06:59:37.967Z,75.89
2023-01-05T07:02:04.683Z,75.47
2023-01-05T07:04:31.407Z,76.45
2023-01-05T07:06:58.164Z,75.43
2023-01-05T07:09:24.814Z,74.44
2023-01-05T07:11:51.457Z,75.32
2023-01-05T07:14:18.115Z,76.33
2023-01-05T07:16:44.787Z,75.45
2023-01-05T07:19:11.410Z,75.58
2023-01-05T07:21:38.035Z,75.35
2023-01-05T07:24:05.245Z,76.18
2023-01-05T07:26:31.975Z,75.78
2023-01-05T07:28:58.991Z,76.71
2023-01-05T07:31:25.776Z,76.28
2023-01-05T07:33:52.518Z,76.59
2023-01-05T07:36:19.151Z,76.07
2023-01-05T07:38:45.807Z,76.77
2023-01-05T07:41:12.466Z,76.05
2023-01-05T07:43:39.124Z,75.82
2023-01-05T07:46:05.798Z,75.71
2023-01-05T07:48:32.482Z,75.74
2023-01-05T07:51:00.242Z,76.77
2023-01-05T07:53:27.266Z,76.95
2023-01-05T07:56:00.493Z,76.74
2023-01-05T07:58:27.504Z,75.86
2023-01-05T08:00:54.444Z,76.12
2023-01-05T08:03:21.165Z,75.69
2023-01-05T08:05:47.794Z,75.34
2023-01-05T08:08:20.527Z,75.46
2023-01-05T08:10:50.788Z,76.00
2023-01-05T08:13:17.438Z,76.54
2023-01-05T08:15:49.152Z,75.28
2023-01-05T08:18:17.831Z,74.70
2023-01-05T08:20:50.576Z,75.63
2023-01-05T08:23:26.269Z,76.04
2023-01-05T08:25:53.617Z,77.03
2023-01-05T08:28:20.267Z,77.59
2023-01-05T08:30:46.926Z,78.21
2023-01-05T08:33:13.599Z,77.83
2023-01-05T08:35:41.310Z,77.56
2023-01-05T08:38:07.971Z,77.94
2023-01-05T08:40:36.139Z,76.66
2023-01-05T08:43:02.836Z,76.76
2023-01-05T08:45:29.621Z,77.06
2023-01-05T08:47:56.490Z,77.85
2023-01-05T08:50:23.229Z,78.00
2023-01-05T08:52:49.945Z,78.69
2023-01-05T08:55:16.634Z,77.68
2023-01-05T08:57:43.313Z,77.50
2023-01-05T09:00:10.478Z,77.86
2023-01-05T09:02:37.265Z,77.82
2023-01-05T09:05:04.078Z,78.01
2023-01-05T09:07:30.784Z,77.44
2023-01-05T09:09:57.429Z,78.01
2023-01-05T09:12:26.765Z,77.94
2023-01-05T09:14:57.612Z,76.97
2023-01-05T09:17:24.383Z,76.10
2023-01-05T09:19:51.078Z,76.14
2023-01-05T09:22:17.723Z,76.31
2023-01-05T09:24:44.594Z,76.66
2023-01-05T09:27:11.222Z,76.22
2023-01-05T09:29:37.866Z,76.63
2023-01-05T09:32:05.407Z,75.98
2023-01-05T09:34:32.052Z,76.07
2023-01-05T09:36:58.708Z,75.77
2023-01-05T09:39:25.367Z,76.25
2023-01-05T09:41:56.346Z,74.90
2023-01-05T09:44:37.442Z,75.27
2023-01-05T09:47:05.224Z,75.56
2023-01-05T09:49:32.269Z,75.48
2023-01-05T09:52:00.831Z,76.21
2023-01-05T09:54:28.266Z,75.93
2023-01-05T09:57:08.936Z,75.42
2023-01-05T09:59:37.704Z,75.32
2023-01-05T10:02:09.978Z,75.97
2023-01-05T10:04:36.868Z,76.07
2023-01-05T10:07:05.665Z,76.13
2023-01-05T10:09:35.835Z,76.62
2023-01-05T10:12:08.377Z,75.54
2023-01-05T10:14:43.096Z,76.09
2023-01-05T10:17:40.326Z,75.05
2023-01-05T10:20:19.490Z,75.77
2023-01-05T10:23:16.254Z,75.86
2023-01-05T10:26:00.009Z,76.10
2023-01-05T10:28:34.493Z,76.73
2023-01-05T10:31:02.461Z,75.03
2023-01-05T10:33:38.960Z,75.23
2023-01-05T10:37:05.993Z,75.58
2023-01-05T10:39:29.971Z,75.47
2023-01-05T10:42:26.924Z,75.83
2023-01-05T10:45:00.136Z,76.02
2023-01-05T10:47:27.642Z,75.62
2023-01-05T10:49:54.321Z,76.08
2023-01-05T10:52:21.622Z,76.07
2023-01-05T10:54:59.285Z,76.57
2023-01-05T10:57:34.082Z,76.13
2023-01-05T11:00:07.260Z,76.65
2023-01-05T11:02:38.706Z,76.02
2023-01-05T11:05:11.550Z,76.76
2023-01-05T11:07:58.387Z,76.80
2023-01-05T11:10:33.012Z,77.60
2023-01-05T11:13:05.788Z,76.61
2023-01-05T11:15:33.809Z,77.23
2023-01-05T11:18:00.501Z,76.56
2023-01-05T11:20:27.768Z,77.00
2023-01-05T11:22:54.388Z,77.40
2023-01-05T11:25:27.778Z,77.49
2023-01-05T11:28:14.208Z,77.83
2023-01-05T11:31:02.075Z,77.60
2023-01-05T11:33:29.922Z,78.11
2023-01-05T11:35:57.261Z,77.45
2023-01-05T11:38:28.561Z,76.91
2023-01-05T11:40:56.846Z,76.06
2023-01-05T11:43:24.776Z,75.61
2023-01-05T11:45:53.772Z,76.64
2023-01-05T11:48:25.421Z,74.93
2023-01-05T11:50:53.824Z,74.64
2023-01-05T11:53:36.705Z,74.10
2023-01-05T11:56:06.048Z,75.36
2023-01-05T11:58:45.819Z,74.58
2023-01-05T12:01:27.854Z,73.68
2023-01-05T12:04:04.537Z,74.19
2023-01-05T12:07:08.334Z,74.38
2023-01-05T12:09:59.239Z,73.90
2023-01-05T12:12:50.622Z,72.57
2023-01-05T12:15:29.391Z,72.51
2023-01-05T12:18:08.330Z,72.78
2023-01-05T12:20:54.978Z,72.44
2023-01-05T12:23:24.116Z,72.51
2023-01-05T12:26:23.053Z,71.56
2023-01-05T12:35:16.602Z,72.25
2023-01-05T12:38:01.832Z,71.55
2023-01-05T12:40:32.572Z,71.18
2023-01-05T12:42:59.085Z,71.58
2023-01-05T12:45:40.885Z,71.58
2023-01-05T12:48:19.144Z,71.03
2023-01-05T12:50:54.895Z,70.53
2023-01-05T12:53:36.591Z,71.39
2023-01-05T12:56:18.134Z,69.29
2023-01-05T12:59:11.355Z,69.45
2023-01-05T13:02:01.768Z,68.70
2023-01-05T13:04:56.475Z,68.97
2023-01-05T13:07:33.275Z,69.04
2023-01-05T13:10:03.265Z,67.19
2023-01-05T13:12:31.329Z,68.50
2023-01-05T13:15:12.073Z,68.14
2023-01-05T13:17:44.918Z,67.80
2023-01-05T13:20:20.855Z,67.56
2023-01-05T13:22:47.741Z,68.81
2023-01-05T13:25:19.541Z,68.68
2023-01-05T13:27:46.209Z,68.40
2023-01-05T13:30:19.972Z,68.34
2023-01-05T13:33:26.980Z,69.07
2023-01-05T13:36:16.926Z,68.87
2023-01-05T13:39:16.795Z,68.39
2023-01-05T13:41:46.277Z,68.12
2023-01-05T13:44:31.528Z,68.47
2023-01-05T13:47:04.014Z,68.71
2023-01-05T13:50:08.688Z,68.35
2023-01-05T13:52:47.295Z,67.69
2023-01-05T13:55:24.824Z,67.74
2023-01-05T13:57:52.335Z,67.76
2023-01-05T14:00:30.470Z,68.07
2023-01-05T14:03:09.300Z,67.14
2023-01-05T14:05:49.704Z,67.37
2023-01-05T14:08:22.720Z,67.52
2023-01-05T14:11:15.094Z,67.24
2023-01-05T14:13:45.972Z,67.11
2023-01-05T14:16:34.621Z,66.71
2023-01-05T14:19:13.810Z,67.46
2023-01-05T14:21:58.290Z,67.56
2023-01-05T14:24:40.483Z,68.09
2023-01-05T14:27:10.599Z,68.31
2023-01-05T14:29:46.110Z,67.92
2023-01-05T14:32:26.498Z,67.87
2023-01-05T14:37:33.100Z,68.15
2023-01-05T14:40:04.335Z,67.25
2023-01-05T14:42:37.231Z,67.39
2023-01-05T14:45:05.173Z,66.55
2023-01-05T14:47:48.757Z,67.08
2023-01-05T14:50:33.447Z,66.64
2023-01-05T14:53:06.140Z,67.20
2023-01-05T14:55:51.963Z,67.37
2023-01-05T14:58:36.833Z,67.13
2023-01-05T15:01:18.585Z,67.83
2023-01-05T15:04:04.735Z,67.83
2023-01-05T15:07:01.829Z,68.00
2023-01-05T15:09:47.001Z,68.34
2023-01-05T15:12:32.534Z,68.24
2023-01-05T15:15:06.449Z,68.18
2023-01-05T15:17:55.932Z,67.97
2023-01-05T15:20:46.031Z,68.52
2023-01-05T15:23:33.207Z,68.27
2023-01-05T15:26:16.037Z,68.18
2023-01-05T15:29:11.711Z,68.25
2023-01-05T15:31:46.295Z,68.90
2023-01-05T15:34:34.362Z,69.42
2023-01-05T15:37:23.061Z,70.05
2023-01-05T15:39:51.404Z,71.05
2023-01-05T15:42:37.109Z,72.60
2023-01-05T15:45:03.950Z,73.55
2023-01-05T15:47:30.581Z,74.17
2023-01-05T15:50:01.025Z,74.58
2023-01-05T15:52:31.768Z,74.52
2023-01-05T15:55:00.359Z,74.37
2023-01-05T15:57:27.159Z,73.43
2023-01-05T15:59:53.860Z,73.63
2023-01-05T16:02:30.282Z,72.81
2023-01-05T16:05:16.147Z,72.80
2023-01-05T16:07:58.392Z,72.25
2023-01-05T16:10:49.127Z,72.70
2023-01-05T16:13:38.865Z,72.91
2023-01-05T16:16:24.898Z,73.27
2023-01-05T16:19:05.189Z,72.96
2023-01-05T16:21:41.618Z,73.26
2023-01-05T16:24:29.118Z,72.66
2023-01-05T16:26:55.769Z,72.46
2023-01-05T16:29:33.012Z,72.79
2023-01-05T16:31:59.860Z,73.66
2023-01-05T16:34:26.510Z,73.11
2023-01-05T16:37:05.622Z,73.28
2023-01-05T16:39:35.560Z,73.38
2023-01-05T16:42:05.829Z,74.53
2023-01-05T16:44:34.042Z,73.85
2023-01-05T16:47:07.965Z,73.58
2023-01-05T16:49:43.679Z,74.52
2023-01-05T16:52:23.946Z,74.57
2023-01-05T16:55:19.948Z,74.43
2023-01-05T16:57:46.866Z,74.41
2023-01-05T17:00:25.706Z,73.53
2023-01-05T17:02:52.964Z,73.19
2023-01-05T17:05:33.648Z,74.42
2023-01-05T17:08:03.100Z,75.07
2023-01-05T17:10:29.744Z,73.56
2023-01-05T17:13:07.925Z,73.42
2023-01-05T17:15:37.930Z,73.49
2023-01-05T17:18:19.678Z,74.58
2023-01-05T17:20:46.356Z,73.67
2023-01-05T17:23:34.781Z,73.61
2023-01-05T17:26:09.119Z,73.80
2023-01-05T17:28:35.839Z,74.04
2023-01-05T17:31:03.975Z,73.98
2023-01-05T17:33:30.652Z,74.23
2023-01-05T17:35:57.306Z,74.37
2023-01-05T17:38:23.966Z,74.30
2023-01-05T17:40:50.646Z,74.18
2023-01-05T17:43:19.887Z,73.73
2023-01-05T17:45:46.654Z,74.76
2023-01-05T17:48:13.683Z,74.23
2023-01-05T17:50:40.326Z,74.23
2023-01-05T17:53:07.340Z,74.87
2023-01-05T17:55:33.978Z,75.36
2023-01-05T17:58:00.968Z,75.31
2023-01-05T18:00:28.790Z,74.00
2023-01-05T18:02:55.517Z,73.09
2023-01-05T18:05:23.009Z,73.60
2023-01-05T18:07:49.874Z,73.76
2023-01-05T18:10:22.071Z,74.00
2023-01-05T18:12:48.747Z,73.84
2023-01-05T18:15:15.449Z,74.22
2023-01-05T18:17:42.407Z,74.46
2023-01-05T18:20:12.813Z,75.06
2023-01-05T18:22:39.503Z,75.33
2023-01-05T18:27:37.935Z,75.38
2023-01-05T18:30:05.430Z,75.50
2023-01-05T18:32:32.089Z,75.21
2023-01-05T18:34:58.954Z,75.43
2023-01-05T18:39:57.155Z,75.33
2023-01-05T18:42:23.774Z,75.43
2023-01-05T18:44:50.417Z,76.16
2023-01-05T18:47:17.060Z,76.60
2023-01-05T18:49:46.658Z,76.35
2023-01-05T18:52:13.338Z,75.78
2023-01-05T18:54:39.976Z,75.50
2023-01-05T18:57:06.609Z,75.73
2023-01-05T18:59:33.355Z,75.50
2023-01-05T19:01:59.994Z,76.20
2023-01-05T19:04:27.414Z,75.97
2023-01-05T19:06:54.105Z,76.41
2023-01-05T19:09:20.732Z,76.58
2023-01-05T19:11:47.649Z,76.16
2023-01-05T19:14:16.968Z,76.86
2023-01-05T19:16:43.608Z,76.28
2023-01-05T19:19:12.017Z,76.60
2023-01-05T19:21:39.822Z,76.16
2023-01-05T19:24:07.376Z,76.54
2023-01-05T19:26:36.246Z,76.83
2023-01-05T19:29:03.601Z,75.63
2023-01-05T19:31:30.274Z,76.08
2023-01-05T19:33:57.026Z,75.72
2023-01-05T19:36:23.734Z,76.35
2023-01-05T19:38:50.373Z,75.65
2023-01-05T19:41:19.665Z,75.68
2023-01-05T19:43:50.600Z,76.33
2023-01-05T19:46:19.001Z,74.94
2023-01-05T19:48:45.723Z,73.43
2023-01-05T19:51:13.888Z,74.78
2023-01-05T19:53:41.017Z,74.81
2023-01-05T19:56:12.119Z,76.04
2023-01-05T19:58:38.952Z,76.28
2023-01-05T20:01:12.035Z,76.57
2023-01-05T20:03:38.754Z,76.42
2023-01-05T20:06:16.881Z,75.81
2023-01-05T20:08:44.668Z,76.73
2023-01-05T20:11:12.785Z,76.86
2023-01-05T20:13:40.082Z,76.14
2023-01-05T20:16:11.857Z,75.58
2023-01-05T20:18:38.771Z,75.83
2023-01-05T20:21:06.454Z,76.03
2023-01-05T20:23:34.023Z,75.09
2023-01-05T20:26:07.124Z,75.32
2023-01-05T20:28:33.798Z,75.84
2023-01-05T20:31:00.501Z,75.34
2023-01-05T20:33:27.243Z,74.92
2023-01-05T20:35:54.406Z,75.12
2023-01-05T20:38:21.036Z,74.77
2023-01-05T20:40:47.674Z,75.64
2023-01-05T20:43:14.286Z,74.45
2023-01-05T20:45:40.959Z,75.23
2023-01-05T20:48:07.596Z,74.14
2023-01-05T20:50:34.233Z,75.31
2023-01-05T20:53:01.009Z,74.88
2023-01-05T20:55:27.674Z,74.89
2023-01-05T20:57:54.809Z,74.73
2023-01-05T21:00:21.475Z,74.29
2023-01-05T21:02:48.177Z,74.49
2023-01-05T21:05:15.295Z,73.31
2023-01-05T21:07:41.950Z,74.01
2023-01-05T21:10:08.699Z,73.92
2023-01-05T21:12:35.354Z,73.46
2023-01-05T21:15:01.983Z,73.73
2023-01-05T21:17:28.613Z,74.70
2023-01-05T21:19:55.237Z,74.50
2023-01-05T21:22:21.923Z,74.73
2023-01-05T21:24:48.574Z,74.44
2023-01-05T21:27:15.222Z,74.39
2023-01-05T21:29:41.867Z,74.73
2023-01-05T21:32:11.494Z,74.98
2023-01-05T21:34:38.163Z,74.97
2023-01-05T21:37:04.815Z,74.90
2023-01-05T21:39:31.516Z,75.04
2023-01-05T21:41:59.935Z,74.71
2023-01-05T21:44:27.066Z,74.16
2023-01-05T21:46:53.740Z,74.01
2023-01-05T21:49:20.467Z,74.56
2023-01-05T21:51:47.237Z,73.94
2023-01-05T21:54:13.935Z,73.74
2023-01-05T21:56:40.576Z,73.66
2023-01-05T21:59:07.263Z,73.15
2023-01-05T22:01:33.923Z,73.13
2023-01-05T22:04:00.637Z,73.03
2023-01-05T22:06:27.333Z,73.96
2023-01-05T22:08:53.992Z,73.65
2023-01-05T22:11:20.687Z,73.31
2023-01-05T22:13:47.366Z,73.89
2023-01-05T22:16:14.068Z,73.67
2023-01-05T22:18:40.762Z,73.59
2023-01-05T22:21:08.216Z,74.08
2023-01-05T22:23:35.355Z,73.23
2023-01-05T22:26:07.453Z,72.71
2023-01-05T22:28:38.556Z,72.30
2023-01-05T22:31:08.610Z,72.77
2023-01-05T22:33:36.308Z,72.46
2023-01-05T22:36:03.196Z,72.73
2023-01-05T22:38:30.084Z,72.96
2023-01-05T22:40:57.892Z,72.71
2023-01-05T22:43:24.686Z,72.46
2023-01-05T22:45:51.494Z,71.53
2023-01-05T22:48:18.236Z,72.22
2023-01-05T22:50:45.903Z,72.10
2023-01-05T22:53:12.638Z,72.71
2023-01-05T22:55:42.281Z,71.98
2023-01-05T22:58:09.514Z,72.19
2023-01-05T23:00:36.137Z,72.42
2023-01-05T23:03:02.824Z,71.28
2023-01-05T23:05:29.461Z,71.82
2023-01-05T23:07:56.081Z,72.74
2023-01-05T23:10:22.700Z,71.70
2023-01-05T23:12:49.816Z,72.66
2023-01-05T23:15:16.476Z,72.76
2023-01-05T23:17:43.120Z,71.74
2023-01-05T23:20:10.373Z,71.97
2023-01-05T23:22:37.027Z,72.46
2023-01-05T23:25:03.749Z,72.26
2023-01-05T23:27:30.361Z,72.26
2023-01-05T23:29:56.979Z,72.60
2023-01-05T23:32:23.615Z,72.32
2023-01-05T23:34:50.383Z,73.11
2023-01-05T23:37:17.087Z,72.94
2023-01-05T23:39:43.713Z,72.19
2023-01-05T23:42:10.372Z,72.08
2023-01-05T23:44:37.100Z,72.91
2023-01-05T23:47:03.779Z,73.13
2023-01-05T23:49:30.408Z,72.07
2023-01-05T23:51:57.085Z,72.55
2023-01-05T23:54:23.712Z,72.41
2023-01-05T23:56:50.333Z,72.08
2023-01-05T23:59:17.439Z,72.98
